Reggio, Louisiana
Current Conditions -  °F | °C
As of 5:55 PM on Friday 24 Oct 2014 (Local Time) from KNBG Reporting Station
Few Clouds Few Clouds  
Wind Chill: 73°   Ceiling: Unl
Heat Index: 73°   Visibility: 10mi
Dew Point: 45°   Wind: 5mph
Humidity: 37%   Direction: 350°N
Pressure: 30.04"   Gusts: NA
Location:  29.8369°N, 89.7702°W
Report Text: KNBG 242255Z 35004KT 10SM FEW010 FEW250 23/07 A3004 RMK AO2 SLP173 FU FEW010 T02280072 $
Loading
Personal Weather Stations






























Interactive Weather Map
Tropical Storm Tracking
New forecast layout! Learn more

10-Day Weather Forecast

Advertisements
Track Severe Weather on mobile